createdAt,value
2017-01-17T00:00:16.734Z,1027.35
2017-01-17T00:00:58.396Z,1027.38
2017-01-17T00:01:39.052Z,1027.35
2017-01-17T00:02:19.637Z,1027.32
2017-01-17T00:03:00.253Z,1027.38
2017-01-17T00:03:40.918Z,1027.34
2017-01-17T00:04:21.488Z,1027.36
2017-01-17T00:05:02.112Z,1027.36
2017-01-17T00:05:42.764Z,1027.3
2017-01-17T00:06:23.325Z,1027.35
2017-01-17T00:07:03.963Z,1027.33
2017-01-17T00:07:44.621Z,1027.31
2017-01-17T00:08:25.200Z,1027.34
2017-01-17T00:09:05.767Z,1027.38
2017-01-17T00:09:46.384Z,1027.41
2017-01-17T00:10:27.037Z,1027.37
2017-01-17T00:11:07.610Z,1027.39
2017-01-17T00:11:48.184Z,1027.36
2017-01-17T00:12:28.787Z,1027.37
2017-01-17T00:13:09.443Z,1027.41
2017-01-17T00:13:50.096Z,1027.41
2017-01-17T00:14:30.750Z,1027.42
2017-01-17T00:15:11.423Z,1027.45
2017-01-17T00:15:52.043Z,1027.4
2017-01-17T00:16:32.698Z,1027.41
2017-01-17T00:17:13.355Z,1027.43
2017-01-17T00:17:54.007Z,1027.43
2017-01-17T00:18:34.562Z,1027.44
2017-01-17T00:19:15.162Z,1027.43
2017-01-17T00:19:55.765Z,1027.45
2017-01-17T00:20:36.419Z,1027.43
2017-01-17T00:21:16.968Z,1027.44
2017-01-17T00:21:57.571Z,1027.42
2017-01-17T00:22:38.155Z,1027.41
2017-01-17T00:23:18.825Z,1027.4
2017-01-17T00:23:59.374Z,1027.43
2017-01-17T00:24:39.996Z,1027.4
2017-01-17T00:25:20.529Z,1027.37
2017-01-17T00:26:01.129Z,1027.43
2017-01-17T00:26:41.707Z,1027.39
2017-01-17T00:27:22.383Z,1027.4
2017-01-17T00:28:02.985Z,1027.42
2017-01-17T00:28:43.550Z,1027.41
2017-01-17T00:29:24.167Z,1027.43
2017-01-17T00:30:04.839Z,1027.43
2017-01-17T00:30:45.393Z,1027.38
2017-01-17T00:31:26.038Z,1027.41
2017-01-17T00:32:06.701Z,1027.41
2017-01-17T00:32:47.349Z,1027.42
2017-01-17T00:33:28.006Z,1027.37
2017-01-17T00:34:08.663Z,1027.4
2017-01-17T00:34:49.308Z,1027.39
2017-01-17T00:35:30.576Z,1027.42
2017-01-17T00:36:11.229Z,1027.43
2017-01-17T00:36:51.880Z,1027.4
2017-01-17T00:37:32.430Z,1027.45
2017-01-17T00:38:13.092Z,1027.44
2017-01-17T00:38:53.742Z,1027.45
2017-01-17T00:39:34.293Z,1027.44
2017-01-17T00:40:14.921Z,1027.44
2017-01-17T00:40:55.596Z,1027.43
2017-01-17T00:41:36.198Z,1027.41
2017-01-17T00:42:16.805Z,1027.42
2017-01-17T00:42:57.446Z,1027.42
2017-01-17T00:43:38.102Z,1027.43
2017-01-17T00:44:18.758Z,1027.4
2017-01-17T00:44:59.407Z,1027.46
2017-01-17T00:45:40.061Z,1027.44
2017-01-17T00:46:20.715Z,1027.41
2017-01-17T00:47:01.363Z,1027.44
2017-01-17T00:47:41.927Z,1027.42
2017-01-17T00:48:22.542Z,1027.47
2017-01-17T00:49:03.214Z,1027.47
2017-01-17T00:49:43.880Z,1027.48
2017-01-17T00:50:24.459Z,1027.51
2017-01-17T00:51:05.181Z,1027.48
2017-01-17T00:51:45.853Z,1027.5
2017-01-17T00:52:26.490Z,1027.51
2017-01-17T00:53:07.139Z,1027.57
2017-01-17T00:53:48.408Z,1027.55
2017-01-17T00:54:29.065Z,1027.56
2017-01-17T00:55:09.718Z,1027.61
2017-01-17T00:55:51.387Z,1027.6
2017-01-17T00:56:33.076Z,1027.6
2017-01-17T00:57:13.668Z,1027.62
2017-01-17T00:57:54.265Z,1027.64
2017-01-17T00:58:34.927Z,1027.62
2017-01-17T00:59:15.524Z,1027.66
2017-01-17T00:59:56.202Z,1027.65
2017-01-17T01:00:36.782Z,1027.68
2017-01-17T01:01:17.431Z,1027.69
2017-01-17T01:01:57.992Z,1027.67
2017-01-17T01:02:38.585Z,1027.67
2017-01-17T01:03:19.151Z,1027.69
2017-01-17T01:03:59.891Z,1027.7
2017-01-17T01:04:41.514Z,1027.69
2017-01-17T01:05:22.174Z,1027.7
2017-01-17T01:06:02.730Z,1027.74
2017-01-17T01:06:43.321Z,1027.78
2017-01-17T01:07:23.925Z,1027.77
2017-01-17T01:08:04.575Z,1027.81
2017-01-17T01:08:45.155Z,1027.78
2017-01-17T01:09:25.755Z,1027.79
2017-01-17T01:10:06.432Z,1027.8
2017-01-17T01:10:47.092Z,1027.82
2017-01-17T01:11:27.663Z,1027.79
2017-01-17T01:12:08.269Z,1027.84
2017-01-17T01:12:48.945Z,1027.8
2017-01-17T01:13:29.615Z,1027.82
2017-01-17T01:14:10.460Z,1027.83
2017-01-17T01:14:51.293Z,1027.83
2017-01-17T01:15:31.967Z,1027.85
2017-01-17T01:16:12.669Z,1027.84
2017-01-17T01:16:53.277Z,1027.86
2017-01-17T01:17:33.918Z,1027.81
2017-01-17T01:18:14.576Z,1027.8
2017-01-17T01:18:55.161Z,1027.86
2017-01-17T01:19:35.784Z,1027.82
2017-01-17T01:20:16.433Z,1027.83
2017-01-17T01:20:56.992Z,1027.81
2017-01-17T01:21:37.637Z,1027.8
2017-01-17T01:22:18.235Z,1027.79
2017-01-17T01:22:58.840Z,1027.8
2017-01-17T01:23:39.495Z,1027.8
2017-01-17T01:24:20.093Z,1027.84
2017-01-17T01:25:00.691Z,1027.81
2017-01-17T01:25:42.273Z,1027.79
2017-01-17T01:26:22.835Z,1027.79
2017-01-17T01:27:03.465Z,1027.79
2017-01-17T01:27:44.223Z,1027.79
2017-01-17T01:28:24.780Z,1027.76
2017-01-17T01:29:05.382Z,1027.74
2017-01-17T01:29:45.985Z,1027.74
2017-01-17T01:30:26.634Z,1027.78
2017-01-17T01:31:07.263Z,1027.75
2017-01-17T01:31:47.941Z,1027.77
2017-01-17T01:32:28.595Z,1027.78
2017-01-17T01:33:09.247Z,1027.77
2017-01-17T01:33:50.917Z,1027.79
2017-01-17T01:34:31.577Z,1027.81
2017-01-17T01:35:12.234Z,1027.82
2017-01-17T01:35:52.885Z,1027.82
2017-01-17T01:36:33.546Z,1027.86
2017-01-17T01:37:14.191Z,1027.84
2017-01-17T01:37:55.867Z,1027.87
2017-01-17T01:38:36.450Z,1027.88
2017-01-17T01:39:17.070Z,1027.88
2017-01-17T01:39:57.722Z,1027.9
2017-01-17T01:40:38.374Z,1027.89
2017-01-17T01:41:19.027Z,1027.91
2017-01-17T01:41:59.681Z,1027.9
2017-01-17T01:42:40.265Z,1027.9
2017-01-17T01:43:21.855Z,1027.97
2017-01-17T01:44:02.458Z,1027.95
2017-01-17T01:44:43.116Z,1028.03
2017-01-17T01:45:23.690Z,1028.03
2017-01-17T01:46:04.391Z,1028.01
2017-01-17T01:46:45.987Z,1028.05
2017-01-17T01:47:26.550Z,1028.09
2017-01-17T01:48:07.144Z,1028.06
2017-01-17T01:48:47.848Z,1028.11
2017-01-17T01:49:29.542Z,1028.15
2017-01-17T01:50:10.197Z,1028.16
2017-01-17T01:50:51.836Z,1028.15
2017-01-17T01:51:33.530Z,1028.14
2017-01-17T01:52:14.183Z,1028.2
2017-01-17T01:52:54.731Z,1028.19
2017-01-17T01:53:35.393Z,1028.16
2017-01-17T01:54:16.050Z,1028.18
2017-01-17T01:54:56.658Z,1028.16
2017-01-17T01:55:37.351Z,1028.18
2017-01-17T01:56:19.021Z,1028.19
2017-01-17T01:56:59.589Z,1028.19
2017-01-17T01:57:40.220Z,1028.18
2017-01-17T01:58:20.879Z,1028.22
2017-01-17T01:59:01.469Z,1028.21
2017-01-17T01:59:43.098Z,1028.24
2017-01-17T02:00:23.758Z,1028.24
2017-01-17T02:01:04.346Z,1028.22
2017-01-17T02:01:44.964Z,1028.22
2017-01-17T02:02:26.537Z,1028.23
2017-01-17T02:03:07.115Z,1028.26
2017-01-17T02:03:47.791Z,1028.27
2017-01-17T02:04:28.445Z,1028.27
2017-01-17T02:05:09.097Z,1028.3
2017-01-17T02:05:49.751Z,1028.29
2017-01-17T02:06:30.405Z,1028.28
2017-01-17T02:07:11.056Z,1028.29
2017-01-17T02:07:51.757Z,1028.3
2017-01-17T02:08:32.410Z,1028.3
2017-01-17T02:09:13.073Z,1028.3
2017-01-17T02:09:53.724Z,1028.35
2017-01-17T02:10:35.398Z,1028.32
2017-01-17T02:11:16.050Z,1028.35
2017-01-17T02:11:56.703Z,1028.32
2017-01-17T02:12:37.282Z,1028.36
2017-01-17T02:13:17.957Z,1028.34
2017-01-17T02:13:58.559Z,1028.34
2017-01-17T02:14:39.129Z,1028.37
2017-01-17T02:15:19.710Z,1028.36
2017-01-17T02:16:00.390Z,1028.36
2017-01-17T02:16:41.063Z,1028.39
2017-01-17T02:17:22.744Z,1028.38
2017-01-17T02:18:03.398Z,1028.41
2017-01-17T02:18:44.051Z,1028.4
2017-01-17T02:19:24.704Z,1028.39
2017-01-17T02:20:05.357Z,1028.4
2017-01-17T02:20:46.012Z,1028.46
2017-01-17T02:21:26.663Z,1028.42
2017-01-17T02:22:07.228Z,1028.43
2017-01-17T02:22:47.870Z,1028.45
2017-01-17T02:23:28.519Z,1028.44
2017-01-17T02:24:09.171Z,1028.41
2017-01-17T02:24:50.850Z,1028.44
2017-01-17T02:25:31.506Z,1028.44
2017-01-17T02:26:13.176Z,1028.45
2017-01-17T02:26:53.831Z,1028.45
2017-01-17T02:27:34.481Z,1028.45
2017-01-17T02:28:15.142Z,1028.43
2017-01-17T02:28:55.789Z,1028.46
2017-01-17T02:29:36.441Z,1028.49
2017-01-17T02:30:17.096Z,1028.46
2017-01-17T02:30:57.751Z,1028.46
2017-01-17T02:31:38.404Z,1028.46
2017-01-17T02:32:19.056Z,1028.46
2017-01-17T02:32:59.611Z,1028.45
2017-01-17T02:33:40.305Z,1028.47
2017-01-17T02:34:20.922Z,1028.51
2017-01-17T02:35:01.561Z,1028.47
2017-01-17T02:35:42.127Z,1028.48
2017-01-17T02:36:24.442Z,1028.52
2017-01-17T02:37:05.054Z,1028.48
2017-01-17T02:37:45.813Z,1028.51
2017-01-17T02:38:26.463Z,1028.51
2017-01-17T02:39:07.116Z,1028.54
2017-01-17T02:39:48.806Z,1028.48
2017-01-17T02:40:29.459Z,1028.5
2017-01-17T02:41:10.112Z,1028.47
2017-01-17T02:41:50.767Z,1028.49
2017-01-17T02:42:31.405Z,1028.51
2017-01-17T02:43:13.095Z,1028.52
2017-01-17T02:43:53.743Z,1028.49
2017-01-17T02:44:34.402Z,1028.51
2017-01-17T02:45:15.057Z,1028.5
2017-01-17T02:45:55.705Z,1028.53
2017-01-17T02:46:36.360Z,1028.51
2017-01-17T02:47:18.024Z,1028.54
2017-01-17T02:47:59.711Z,1028.54
2017-01-17T02:48:41.389Z,1028.51
2017-01-17T02:49:22.042Z,1028.51
2017-01-17T02:50:02.592Z,1028.55
2017-01-17T02:50:43.564Z,1028.54
2017-01-17T02:51:24.198Z,1028.57
2017-01-17T02:52:04.851Z,1028.55
2017-01-17T02:52:45.558Z,1028.56
2017-01-17T02:53:26.210Z,1028.61
2017-01-17T02:54:06.809Z,1028.63
2017-01-17T02:54:48.494Z,1028.59
2017-01-17T02:55:29.092Z,1028.64
2017-01-17T02:56:09.767Z,1028.63
2017-01-17T02:56:50.342Z,1028.65
2017-01-17T02:57:31.003Z,1028.65
2017-01-17T02:58:11.598Z,1028.68
2017-01-17T02:58:52.190Z,1028.66
2017-01-17T02:59:32.853Z,1028.69
2017-01-17T03:00:13.420Z,1028.69
2017-01-17T03:00:53.993Z,1028.72
2017-01-17T03:01:34.597Z,1028.69
2017-01-17T03:02:15.747Z,1028.64
2017-01-17T03:02:56.312Z,1028.7
2017-01-17T03:03:36.899Z,1028.71
2017-01-17T03:04:17.571Z,1028.72
2017-01-17T03:04:58.254Z,1028.7
2017-01-17T03:05:38.826Z,1028.72
2017-01-17T03:06:19.492Z,1028.68
2017-01-17T03:07:00.102Z,1028.74
2017-01-17T03:07:40.679Z,1028.71
2017-01-17T03:08:21.295Z,1028.71
2017-01-17T03:09:01.857Z,1028.74
2017-01-17T03:09:42.414Z,1028.72
2017-01-17T03:10:23.020Z,1028.72
2017-01-17T03:11:03.621Z,1028.69
2017-01-17T03:11:44.272Z,1028.68
2017-01-17T03:12:24.825Z,1028.69
2017-01-17T03:13:05.467Z,1028.67
2017-01-17T03:13:46.122Z,1028.67
2017-01-17T03:14:26.773Z,1028.67
2017-01-17T03:15:07.426Z,1028.7
2017-01-17T03:15:48.078Z,1028.71
2017-01-17T03:16:28.732Z,1028.7
2017-01-17T03:17:09.393Z,1028.72
2017-01-17T03:17:49.936Z,1028.72
2017-01-17T03:18:30.575Z,1028.72
2017-01-17T03:19:11.242Z,1028.76
2017-01-17T03:19:51.818Z,1028.77
2017-01-17T03:20:32.416Z,1028.78
2017-01-17T03:21:12.982Z,1028.76
2017-01-17T03:21:53.654Z,1028.78
2017-01-17T03:22:34.257Z,1028.78
2017-01-17T03:23:14.902Z,1028.74
2017-01-17T03:23:55.568Z,1028.73
2017-01-17T03:24:36.168Z,1028.75
2017-01-17T03:25:16.832Z,1028.74
2017-01-17T03:25:57.438Z,1028.72
2017-01-17T03:26:38.092Z,1028.72
2017-01-17T03:27:18.745Z,1028.73
2017-01-17T03:27:59.401Z,1028.7
2017-01-17T03:28:40.049Z,1028.72
2017-01-17T03:29:20.704Z,1028.72
2017-01-17T03:30:01.357Z,1028.68
2017-01-17T03:30:42.007Z,1028.73
2017-01-17T03:31:22.655Z,1028.73
2017-01-17T03:32:03.313Z,1028.75
2017-01-17T03:32:43.879Z,1028.74
2017-01-17T03:33:24.522Z,1028.74
2017-01-17T03:34:05.170Z,1028.76
2017-01-17T03:34:45.734Z,1028.77
2017-01-17T03:35:26.374Z,1028.74
2017-01-17T03:36:07.026Z,1028.75
2017-01-17T03:36:47.594Z,1028.74
2017-01-17T03:37:28.235Z,1028.76
2017-01-17T03:38:08.882Z,1028.77
2017-01-17T03:38:49.534Z,1028.74
2017-01-17T03:39:30.101Z,1028.74
2017-01-17T03:40:10.696Z,1028.73
2017-01-17T03:40:51.386Z,1028.74
2017-01-17T03:41:32.563Z,1028.72
2017-01-17T03:42:13.157Z,1028.72
2017-01-17T03:42:53.851Z,1028.7
2017-01-17T03:43:34.515Z,1028.66
2017-01-17T03:44:15.168Z,1028.65
2017-01-17T03:44:55.751Z,1028.61
2017-01-17T03:45:36.313Z,1028.65
2017-01-17T03:46:16.923Z,1028.67
2017-01-17T03:46:57.577Z,1028.63
2017-01-17T03:47:38.145Z,1028.63
2017-01-17T03:48:18.726Z,1028.65
2017-01-17T03:49:00.395Z,1028.65
2017-01-17T03:49:41.105Z,1028.63
2017-01-17T03:50:21.675Z,1028.57
2017-01-17T03:51:02.261Z,1028.61
2017-01-17T03:51:42.866Z,1028.61
2017-01-17T03:52:23.515Z,1028.58
2017-01-17T03:53:04.177Z,1028.61
2017-01-17T03:53:44.824Z,1028.6
2017-01-17T03:54:25.476Z,1028.55
2017-01-17T03:55:06.123Z,1028.59
2017-01-17T03:55:46.781Z,1028.59
2017-01-17T03:56:27.431Z,1028.56
2017-01-17T03:57:08.091Z,1028.59
2017-01-17T03:57:48.642Z,1028.6
2017-01-17T03:58:29.295Z,1028.58
2017-01-17T03:59:09.949Z,1028.56
2017-01-17T03:59:50.533Z,1028.57
2017-01-17T04:00:31.149Z,1028.56
2017-01-17T04:01:11.800Z,1028.55
2017-01-17T04:01:52.368Z,1028.62
2017-01-17T04:02:33.003Z,1028.61
2017-01-17T04:03:13.659Z,1028.6
2017-01-17T04:03:54.309Z,1028.62
2017-01-17T04:04:34.961Z,1028.62
2017-01-17T04:05:15.615Z,1028.58
2017-01-17T04:05:56.185Z,1028.61
2017-01-17T04:06:36.758Z,1028.57
2017-01-17T04:07:17.407Z,1028.58
2017-01-17T04:07:58.078Z,1028.57
2017-01-17T04:08:38.692Z,1028.6
2017-01-17T04:09:19.324Z,1028.6
2017-01-17T04:09:59.911Z,1028.61
2017-01-17T04:10:40.589Z,1028.58
2017-01-17T04:11:21.197Z,1028.62
2017-01-17T04:12:01.838Z,1028.63
2017-01-17T04:12:42.418Z,1028.58
2017-01-17T04:13:23.091Z,1028.57
2017-01-17T04:14:03.809Z,1028.56
2017-01-17T04:14:44.410Z,1028.56
2017-01-17T04:15:25.032Z,1028.53
2017-01-17T04:16:05.731Z,1028.52
2017-01-17T04:16:46.362Z,1028.55
2017-01-17T04:17:27.012Z,1028.5
2017-01-17T04:18:07.613Z,1028.51
2017-01-17T04:18:49.183Z,1028.48
2017-01-17T04:19:29.828Z,1028.44
2017-01-17T04:20:10.493Z,1028.43
2017-01-17T04:20:51.059Z,1028.38
2017-01-17T04:21:31.700Z,1028.41
2017-01-17T04:22:12.270Z,1028.44
2017-01-17T04:22:52.821Z,1028.38
2017-01-17T04:23:33.450Z,1028.4
2017-01-17T04:24:14.104Z,1028.41
2017-01-17T04:24:54.755Z,1028.39
2017-01-17T04:25:35.407Z,1028.39
2017-01-17T04:26:16.059Z,1028.39
2017-01-17T04:26:56.714Z,1028.38
2017-01-17T04:27:37.360Z,1028.38
2017-01-17T04:28:17.931Z,1028.38
2017-01-17T04:28:58.570Z,1028.41
2017-01-17T04:29:39.221Z,1028.38
2017-01-17T04:30:19.798Z,1028.39
2017-01-17T04:31:00.428Z,1028.37
2017-01-17T04:31:41.079Z,1028.37
2017-01-17T04:32:21.654Z,1028.33
2017-01-17T04:33:02.283Z,1028.38
2017-01-17T04:33:43.142Z,1028.42
2017-01-17T04:34:23.792Z,1028.4
2017-01-17T04:35:04.445Z,1028.44
2017-01-17T04:35:45.100Z,1028.38
2017-01-17T04:36:25.753Z,1028.41
2017-01-17T04:37:06.323Z,1028.4
2017-01-17T04:37:46.954Z,1028.46
2017-01-17T04:38:27.607Z,1028.51
2017-01-17T04:39:08.261Z,1028.45
2017-01-17T04:39:48.918Z,1028.47
2017-01-17T04:40:29.568Z,1028.49
2017-01-17T04:41:10.225Z,1028.51
2017-01-17T04:41:50.872Z,1028.49
2017-01-17T04:42:31.528Z,1028.51
2017-01-17T04:43:12.087Z,1028.52
2017-01-17T04:43:52.678Z,1028.55
2017-01-17T04:44:33.287Z,1028.52
2017-01-17T04:45:13.937Z,1028.55
2017-01-17T04:45:54.524Z,1028.62
2017-01-17T04:46:35.208Z,1028.6
2017-01-17T04:47:15.795Z,1028.58
2017-01-17T04:47:56.446Z,1028.59
2017-01-17T04:48:37.099Z,1028.6
2017-01-17T04:49:17.746Z,1028.63
2017-01-17T04:49:58.405Z,1028.63
2017-01-17T04:50:39.059Z,1028.65
2017-01-17T04:51:19.705Z,1028.63
2017-01-17T04:52:00.362Z,1028.67
2017-01-17T04:52:40.918Z,1028.66
2017-01-17T04:53:21.576Z,1028.67
2017-01-17T04:54:02.222Z,1028.67
2017-01-17T04:54:42.797Z,1028.69
2017-01-17T04:55:23.360Z,1028.68
2017-01-17T04:56:03.975Z,1028.71
2017-01-17T04:56:44.530Z,1028.73
2017-01-17T04:57:25.178Z,1028.73
2017-01-17T04:58:05.747Z,1028.7
2017-01-17T04:58:46.356Z,1028.73
2017-01-17T04:59:26.933Z,1028.72
2017-01-17T05:00:07.495Z,1028.73
2017-01-17T05:00:48.138Z,1028.72
2017-01-17T05:01:28.789Z,1028.7
2017-01-17T05:02:09.352Z,1028.72
2017-01-17T05:02:49.995Z,1028.75
2017-01-17T05:03:30.548Z,1028.69
2017-01-17T05:04:11.195Z,1028.72
2017-01-17T05:04:51.848Z,1028.68
2017-01-17T05:05:32.437Z,1028.75
2017-01-17T05:06:13.104Z,1028.75
2017-01-17T05:06:53.712Z,1028.72
2017-01-17T05:07:34.356Z,1028.7
2017-01-17T05:08:15.004Z,1028.74
2017-01-17T05:08:55.662Z,1028.72
2017-01-17T05:09:36.314Z,1028.77
2017-01-17T05:10:16.963Z,1028.74
2017-01-17T05:10:57.619Z,1028.77
2017-01-17T05:11:38.273Z,1028.77
2017-01-17T05:12:18.939Z,1028.76
2017-01-17T05:12:59.574Z,1028.77
2017-01-17T05:13:40.236Z,1028.82
2017-01-17T05:14:20.897Z,1028.85
2017-01-17T05:15:01.531Z,1028.88
2017-01-17T05:15:42.191Z,1028.88
2017-01-17T05:16:22.843Z,1028.87
2017-01-17T05:17:03.491Z,1028.95
2017-01-17T05:17:44.147Z,1029.03
2017-01-17T05:18:24.801Z,1029.04
2017-01-17T05:19:05.458Z,1029.08
2017-01-17T05:19:46.108Z,1029.09
2017-01-17T05:20:26.763Z,1029.12
2017-01-17T05:21:07.413Z,1029.18
2017-01-17T05:21:48.065Z,1029.16
2017-01-17T05:22:28.720Z,1029.23
2017-01-17T05:23:09.284Z,1029.2
2017-01-17T05:23:49.885Z,1029.18
2017-01-17T05:24:30.474Z,1029.22
2017-01-17T05:25:12.144Z,1029.23
2017-01-17T05:25:52.715Z,1029.27
2017-01-17T05:26:33.301Z,1029.27
2017-01-17T05:27:14.007Z,1029.29
2017-01-17T05:27:54.663Z,1029.28
2017-01-17T05:28:35.214Z,1029.29
2017-01-17T05:29:15.865Z,1029.31
2017-01-17T05:29:56.521Z,1029.31
2017-01-17T05:30:37.104Z,1029.34
2017-01-17T05:31:17.763Z,1029.32
2017-01-17T05:31:58.375Z,1029.36
2017-01-17T05:32:39.029Z,1029.33
2017-01-17T05:33:19.683Z,1029.37
2017-01-17T05:34:00.336Z,1029.35
2017-01-17T05:34:40.983Z,1029.37
2017-01-17T05:35:21.646Z,1029.42
2017-01-17T05:36:02.297Z,1029.4
2017-01-17T05:36:42.945Z,1029.43
2017-01-17T05:37:23.598Z,1029.42
2017-01-17T05:38:04.157Z,1029.42
2017-01-17T05:38:44.767Z,1029.38
2017-01-17T05:39:25.477Z,1029.47
2017-01-17T05:40:06.317Z,1029.44
2017-01-17T05:40:46.887Z,1029.44
2017-01-17T05:41:27.462Z,1029.5
2017-01-17T05:42:08.073Z,1029.5
2017-01-17T05:42:48.726Z,1029.48
2017-01-17T05:43:29.281Z,1029.5
2017-01-17T05:44:09.927Z,1029.52
2017-01-17T05:44:50.576Z,1029.52
2017-01-17T05:45:31.137Z,1029.5
2017-01-17T05:46:11.791Z,1029.52
2017-01-17T05:46:52.437Z,1029.54
2017-01-17T05:47:33.030Z,1029.52
2017-01-17T05:48:13.634Z,1029.53
2017-01-17T05:48:54.294Z,1029.51
2017-01-17T05:49:34.946Z,1029.54
2017-01-17T05:50:15.597Z,1029.53
2017-01-17T05:50:56.246Z,1029.52
2017-01-17T05:51:36.903Z,1029.51
2017-01-17T05:52:17.566Z,1029.49
2017-01-17T05:52:58.119Z,1029.53
2017-01-17T05:53:38.695Z,1029.54
2017-01-17T05:54:19.301Z,1029.51
2017-01-17T05:54:59.962Z,1029.52
2017-01-17T05:55:40.515Z,1029.51
2017-01-17T05:56:21.099Z,1029.55
2017-01-17T05:57:01.711Z,1029.55
2017-01-17T05:57:42.370Z,1029.57
2017-01-17T05:58:22.934Z,1029.6
2017-01-17T05:59:03.524Z,1029.64
2017-01-17T05:59:45.148Z,1029.62
2017-01-17T06:00:25.702Z,1029.61
2017-01-17T06:01:06.294Z,1029.61
2017-01-17T06:01:47.004Z,1029.63
2017-01-17T06:02:27.661Z,1029.64
2017-01-17T06:03:08.212Z,1029.63
2017-01-17T06:03:48.860Z,1029.62
2017-01-17T06:04:29.512Z,1029.65
2017-01-17T06:05:10.080Z,1029.61
2017-01-17T06:05:50.720Z,1029.65
2017-01-17T06:06:31.368Z,1029.64
2017-01-17T06:07:12.025Z,1029.64
2017-01-17T06:07:52.678Z,1029.65
2017-01-17T06:08:33.331Z,1029.66
2017-01-17T06:09:13.983Z,1029.66
2017-01-17T06:09:54.639Z,1029.64
2017-01-17T06:10:35.288Z,1029.66
2017-01-17T06:11:15.942Z,1029.65
2017-01-17T06:11:56.594Z,1029.62
2017-01-17T06:12:37.247Z,1029.66
2017-01-17T06:13:17.900Z,1029.66
2017-01-17T06:13:58.554Z,1029.67
2017-01-17T06:14:39.207Z,1029.67
2017-01-17T06:15:19.858Z,1029.67
2017-01-17T06:16:00.511Z,1029.67
2017-01-17T06:16:41.164Z,1029.68
2017-01-17T06:17:21.818Z,1029.67
2017-01-17T06:18:02.392Z,1029.69
2017-01-17T06:18:42.975Z,1029.65
2017-01-17T06:19:23.580Z,1029.68
2017-01-17T06:20:04.223Z,1029.73
2017-01-17T06:20:44.787Z,1029.68
2017-01-17T06:21:25.374Z,1029.69
2017-01-17T06:22:05.977Z,1029.68
2017-01-17T06:22:46.629Z,1029.74
2017-01-17T06:23:27.305Z,1029.72
2017-01-17T06:24:07.850Z,1029.76
2017-01-17T06:24:48.486Z,1029.73
2017-01-17T06:25:29.140Z,1029.69
2017-01-17T06:26:09.794Z,1029.7
2017-01-17T06:26:50.463Z,1029.75
2017-01-17T06:27:31.096Z,1029.75
2017-01-17T06:28:11.757Z,1029.71
2017-01-17T06:28:52.403Z,1029.77
2017-01-17T06:29:33.056Z,1029.78
2017-01-17T06:30:13.809Z,1029.77
2017-01-17T06:30:54.468Z,1029.76
2017-01-17T06:31:35.133Z,1029.77
2017-01-17T06:32:15.769Z,1029.78
2017-01-17T06:32:56.424Z,1029.82
2017-01-17T06:33:37.075Z,1029.81
2017-01-17T06:34:17.728Z,1029.81
2017-01-17T06:34:58.381Z,1029.82
2017-01-17T06:35:39.039Z,1029.84
2017-01-17T06:36:19.688Z,1029.88
2017-01-17T06:37:00.340Z,1029.86
2017-01-17T06:37:41.000Z,1029.84
2017-01-17T06:38:21.581Z,1029.87
2017-01-17T06:39:02.177Z,1029.87
2017-01-17T06:39:42.847Z,1029.88
2017-01-17T06:40:23.501Z,1029.91
2017-01-17T06:41:04.052Z,1029.9
2017-01-17T06:41:44.692Z,1029.9
2017-01-17T06:42:25.358Z,1029.92
2017-01-17T06:43:05.933Z,1029.93
2017-01-17T06:43:46.560Z,1029.94
2017-01-17T06:44:27.214Z,1029.96
2017-01-17T06:45:07.977Z,1029.95
2017-01-17T06:45:48.622Z,1029.93
2017-01-17T06:46:29.277Z,1029.96
2017-01-17T06:47:09.926Z,1029.96
2017-01-17T06:47:50.578Z,1030
2017-01-17T06:48:31.242Z,1029.97
2017-01-17T06:49:11.886Z,1030.01
2017-01-17T06:49:52.539Z,1030.02
2017-01-17T06:50:33.193Z,1030.03
2017-01-17T06:51:13.848Z,1030.02
2017-01-17T06:51:54.420Z,1030.07
2017-01-17T06:52:34.997Z,1030.06
2017-01-17T06:53:15.673Z,1030.08
2017-01-17T06:53:56.358Z,1030.08
2017-01-17T06:54:37.005Z,1030.07
2017-01-17T06:55:17.663Z,1030.08
2017-01-17T06:55:58.220Z,1030.15
2017-01-17T06:56:38.890Z,1030.12
2017-01-17T06:57:19.516Z,1030.13
2017-01-17T06:58:00.174Z,1030.15
2017-01-17T06:58:40.838Z,1030.15
2017-01-17T06:59:21.474Z,1030.18
2017-01-17T07:00:02.127Z,1030.14
2017-01-17T07:00:42.779Z,1030.16
2017-01-17T07:01:23.433Z,1030.22
2017-01-17T07:02:04.087Z,1030.22
2017-01-17T07:02:44.742Z,1030.22
2017-01-17T07:03:25.392Z,1030.24
2017-01-17T07:04:06.053Z,1030.23
2017-01-17T07:04:46.702Z,1030.26
2017-01-17T07:05:27.351Z,1030.28
2017-01-17T07:06:08.009Z,1030.34
2017-01-17T07:06:48.574Z,1030.33
2017-01-17T07:07:29.209Z,1030.31
2017-01-17T07:08:09.861Z,1030.32
2017-01-17T07:08:50.511Z,1030.35
2017-01-17T07:09:31.166Z,1030.4
2017-01-17T07:10:11.818Z,1030.41
2017-01-17T07:10:52.472Z,1030.46
2017-01-17T07:11:33.122Z,1030.41
2017-01-17T07:12:13.776Z,1030.44
2017-01-17T07:12:54.432Z,1030.49
2017-01-17T07:13:35.033Z,1030.48
2017-01-17T07:14:15.650Z,1030.48
2017-01-17T07:14:56.303Z,1030.5
2017-01-17T07:15:36.885Z,1030.53
2017-01-17T07:16:17.490Z,1030.49
2017-01-17T07:16:58.140Z,1030.54
2017-01-17T07:17:38.738Z,1030.53
2017-01-17T07:18:19.353Z,1030.54
2017-01-17T07:19:00.004Z,1030.56
2017-01-17T07:19:40.656Z,1030.61
2017-01-17T07:20:21.312Z,1030.61
2017-01-17T07:21:01.891Z,1030.58
2017-01-17T07:21:42.510Z,1030.58
2017-01-17T07:22:23.167Z,1030.6
2017-01-17T07:23:03.821Z,1030.62
2017-01-17T07:23:44.383Z,1030.58
2017-01-17T07:24:25.018Z,1030.62
2017-01-17T07:25:05.675Z,1030.58
2017-01-17T07:25:46.249Z,1030.6
2017-01-17T07:26:26.866Z,1030.59
2017-01-17T07:27:07.544Z,1030.59
2017-01-17T07:27:48.095Z,1030.58
2017-01-17T07:28:28.864Z,1030.57
2017-01-17T07:29:09.492Z,1030.56
2017-01-17T07:29:50.142Z,1030.59
2017-01-17T07:30:30.791Z,1030.59
2017-01-17T07:31:11.453Z,1030.62
2017-01-17T07:31:52.097Z,1030.55
2017-01-17T07:32:33.298Z,1030.53
2017-01-17T07:33:13.914Z,1030.59
2017-01-17T07:33:54.487Z,1030.56
2017-01-17T07:34:35.119Z,1030.57
2017-01-17T07:35:15.702Z,1030.54
2017-01-17T07:35:58.369Z,1030.57
2017-01-17T07:36:39.024Z,1030.54
2017-01-17T07:37:19.591Z,1030.56
2017-01-17T07:38:00.231Z,1030.56
2017-01-17T07:38:40.881Z,1030.57
2017-01-17T07:39:21.456Z,1030.56
2017-01-17T07:40:02.136Z,1030.55
2017-01-17T07:40:42.740Z,1030.56
2017-01-17T07:41:23.304Z,1030.54
2017-01-17T07:42:03.895Z,1030.61
2017-01-17T07:42:44.495Z,1030.6
2017-01-17T07:43:25.058Z,1030.59
2017-01-17T07:44:06.718Z,1030.6
2017-01-17T07:44:47.370Z,1030.6
2017-01-17T07:45:27.977Z,1030.62
2017-01-17T07:46:08.642Z,1030.66
2017-01-17T07:46:49.329Z,1030.66
2017-01-17T07:47:29.991Z,1030.67
2017-01-17T07:48:13.182Z,1030.62
2017-01-17T07:48:53.856Z,1030.63
2017-01-17T07:49:34.504Z,1030.68
2017-01-17T07:50:15.071Z,1030.68
2017-01-17T07:50:55.672Z,1030.67
2017-01-17T07:51:36.359Z,1030.65
2017-01-17T07:52:17.008Z,1030.69
2017-01-17T07:52:57.580Z,1030.69
2017-01-17T07:53:38.325Z,1030.66
2017-01-17T07:54:18.974Z,1030.67
2017-01-17T07:54:59.528Z,1030.7
2017-01-17T07:55:40.158Z,1030.7
2017-01-17T07:56:20.824Z,1030.72
2017-01-17T07:57:01.416Z,1030.71
2017-01-17T07:57:42.034Z,1030.73
2017-01-17T07:58:23.708Z,1030.72
2017-01-17T07:59:04.276Z,1030.74
2017-01-17T07:59:44.883Z,1030.75
2017-01-17T08:00:25.567Z,1030.73
2017-01-17T08:01:06.211Z,1030.76
2017-01-17T08:01:46.777Z,1030.8
2017-01-17T08:02:27.383Z,1030.78
2017-01-17T08:03:07.954Z,1030.77
2017-01-17T08:03:48.607Z,1030.79
2017-01-17T08:04:29.271Z,1030.83
2017-01-17T08:05:09.839Z,1030.82
2017-01-17T08:05:50.448Z,1030.85
2017-01-17T08:06:31.136Z,1030.86
2017-01-17T08:07:11.779Z,1030.85
2017-01-17T08:07:52.354Z,1030.86
2017-01-17T08:08:32.967Z,1030.88
2017-01-17T08:09:13.641Z,1030.86
2017-01-17T08:09:54.304Z,1030.88
2017-01-17T08:10:34.880Z,1030.88
2017-01-17T08:11:15.470Z,1030.9
2017-01-17T08:11:56.133Z,1030.88
2017-01-17T08:12:36.902Z,1030.87
2017-01-17T08:13:17.848Z,1030.91
2017-01-17T08:14:03.580Z,1030.9